sensor_id;sensor_type;location;lat;lon;timestamp;temperature;humidity
73570;SHT30;61850;54.980;73.298;2023-03-01T00:01:21;0.65;88.22
73570;SHT30;61850;54.980;73.298;2023-03-01T00:04:00;0.66;88.33
73570;SHT30;61850;54.980;73.298;2023-03-01T00:06:27;0.68;88.40
73570;SHT30;61850;54.980;73.298;2023-03-01T00:08:58;0.72;88.30
73570;SHT30;61850;54.980;73.298;2023-03-01T00:11:28;0.69;88.31
73570;SHT30;61850;54.980;73.298;2023-03-01T00:13:58;0.68;88.35
73570;SHT30;61850;54.980;73.298;2023-03-01T00:16:37;0.68;88.41
73570;SHT30;61850;54.980;73.298;2023-03-01T00:19:12;0.68;88.36
73570;SHT30;61850;54.980;73.298;2023-03-01T00:21:40;0.64;88.49
73570;SHT30;61850;54.980;73.298;2023-03-01T00:24:07;0.64;88.47
73570;SHT30;61850;54.980;73.298;2023-03-01T00:26:38;0.65;88.51
73570;SHT30;61850;54.980;73.298;2023-03-01T00:29:05;0.66;88.47
73570;SHT30;61850;54.980;73.298;2023-03-01T00:31:32;0.72;88.57
73570;SHT30;61850;54.980;73.298;2023-03-01T00:34:03;0.71;88.69
73570;SHT30;61850;54.980;73.298;2023-03-01T00:36:32;0.71;88.78
73570;SHT30;61850;54.980;73.298;2023-03-01T00:38:59;0.72;88.75
73570;SHT30;61850;54.980;73.298;2023-03-01T00:41:27;0.76;88.75
73570;SHT30;61850;54.980;73.298;2023-03-01T00:43:54;0.72;88.76
73570;SHT30;61850;54.980;73.298;2023-03-01T00:46:21;0.72;88.82
73570;SHT30;61850;54.980;73.298;2023-03-01T00:48:49;0.78;88.88
73570;SHT30;61850;54.980;73.298;2023-03-01T00:51:22;0.81;88.82
73570;SHT30;61850;54.980;73.298;2023-03-01T00:53:52;0.79;88.78
73570;SHT30;61850;54.980;73.298;2023-03-01T00:56:23;0.83;88.70
73570;SHT30;61850;54.980;73.298;2023-03-01T00:58:49;0.82;88.77
73570;SHT30;61850;54.980;73.298;2023-03-01T01:01:18;0.86;88.55
73570;SHT30;61850;54.980;73.298;2023-03-01T01:03:50;0.88;88.50
73570;SHT30;61850;54.980;73.298;2023-03-01T01:06:18;0.89;88.39
73570;SHT30;61850;54.980;73.298;2023-03-01T01:08:51;0.89;88.40
73570;SHT30;61850;54.980;73.298;2023-03-01T01:11:18;0.92;88.43
73570;SHT30;61850;54.980;73.298;2023-03-01T01:13:46;0.90;88.34
73570;SHT30;61850;54.980;73.298;2023-03-01T01:16:18;0.92;88.13
73570;SHT30;61850;54.980;73.298;2023-03-01T01:18:50;0.96;88.18
73570;SHT30;61850;54.980;73.298;2023-03-01T01:21:26;0.96;88.11
73570;SHT30;61850;54.980;73.298;2023-03-01T01:23:58;0.99;88.02
73570;SHT30;61850;54.980;73.298;2023-03-01T01:26:26;0.97;87.90
73570;SHT30;61850;54.980;73.298;2023-03-01T01:29:03;1.03;87.75
73570;SHT30;61850;54.980;73.298;2023-03-01T01:31:41;1.02;87.83
73570;SHT30;61850;54.980;73.298;2023-03-01T01:34:16;1.02;87.80
73570;SHT30;61850;54.980;73.298;2023-03-01T01:36:49;1.02;87.89
73570;SHT30;61850;54.980;73.298;2023-03-01T01:39:20;1.04;87.86
73570;SHT30;61850;54.980;73.298;2023-03-01T01:41:47;1.06;87.82
73570;SHT30;61850;54.980;73.298;2023-03-01T01:49:59;1.12;87.23
73570;SHT30;61850;54.980;73.298;2023-03-01T01:52:36;1.13;87.26
73570;SHT30;61850;54.980;73.298;2023-03-01T01:55:20;1.15;87.26
73570;SHT30;61850;54.980;73.298;2023-03-01T01:57:51;1.13;87.35
73570;SHT30;61850;54.980;73.298;2023-03-01T02:00:29;1.17;87.51
73570;SHT30;61850;54.980;73.298;2023-03-01T02:03:11;1.13;87.63
73570;SHT30;61850;54.980;73.298;2023-03-01T02:05:51;1.15;87.63
73570;SHT30;61850;54.980;73.298;2023-03-01T02:08:19;1.17;87.58
73570;SHT30;61850;54.980;73.298;2023-03-01T02:10:57;1.19;87.65
73570;SHT30;61850;54.980;73.298;2023-03-01T02:13:23;1.22;87.05
73570;SHT30;61850;54.980;73.298;2023-03-01T02:15:54;1.24;87.19
73570;SHT30;61850;54.980;73.298;2023-03-01T02:18:26;1.19;87.23
73570;SHT30;61850;54.980;73.298;2023-03-01T02:21:08;1.22;87.27
73570;SHT30;61850;54.980;73.298;2023-03-01T02:23:38;1.26;87.50
73570;SHT30;61850;54.980;73.298;2023-03-01T02:26:28;1.30;87.44
73570;SHT30;61850;54.980;73.298;2023-03-01T02:28:50;1.33;87.27
73570;SHT30;61850;54.980;73.298;2023-03-01T02:31:18;1.34;87.21
73570;SHT30;61850;54.980;73.298;2023-03-01T02:34:23;1.34;87.50
73570;SHT30;61850;54.980;73.298;2023-03-01T02:37:07;1.37;87.53
73570;SHT30;61850;54.980;73.298;2023-03-01T02:39:48;1.30;87.66
73570;SHT30;61850;54.980;73.298;2023-03-01T02:42:18;1.30;88.07
73570;SHT30;61850;54.980;73.298;2023-03-01T02:44:52;1.27;88.27
73570;SHT30;61850;54.980;73.298;2023-03-01T02:47:19;1.23;88.50
73570;SHT30;61850;54.980;73.298;2023-03-01T02:49:46;1.22;88.54
73570;SHT30;61850;54.980;73.298;2023-03-01T02:52:23;1.23;88.55
73570;SHT30;61850;54.980;73.298;2023-03-01T02:57:25;1.26;88.48
73570;SHT30;61850;54.980;73.298;2023-03-01T02:59:59;1.27;88.52
73570;SHT30;61850;54.980;73.298;2023-03-01T03:02:29;1.31;88.48
73570;SHT30;61850;54.980;73.298;2023-03-01T03:05:15;1.31;88.90
73570;SHT30;61850;54.980;73.298;2023-03-01T03:07:55;1.33;89.24
73570;SHT30;61850;54.980;73.298;2023-03-01T03:10:31;1.31;89.64
73570;SHT30;61850;54.980;73.298;2023-03-01T03:13:10;1.33;90.16
73570;SHT30;61850;54.980;73.298;2023-03-01T03:15:41;1.33;90.35
73570;SHT30;61850;54.980;73.298;2023-03-01T03:18:13;1.33;90.48
73570;SHT30;61850;54.980;73.298;2023-03-01T03:20:39;1.34;90.57
73570;SHT30;61850;54.980;73.298;2023-03-01T03:23:15;1.41;90.71
73570;SHT30;61850;54.980;73.298;2023-03-01T03:25:41;1.38;90.85
73570;SHT30;61850;54.980;73.298;2023-03-01T03:28:07;1.41;90.96
73570;SHT30;61850;54.980;73.298;2023-03-01T03:30:37;1.44;91.08
73570;SHT30;61850;54.980;73.298;2023-03-01T03:33:04;1.43;91.17
73570;SHT30;61850;54.980;73.298;2023-03-01T03:35:31;1.40;91.32
73570;SHT30;61850;54.980;73.298;2023-03-01T03:38:04;1.48;91.56
73570;SHT30;61850;54.980;73.298;2023-03-01T03:40:43;1.41;91.95
73570;SHT30;61850;54.980;73.298;2023-03-01T03:43:12;1.38;92.21
73570;SHT30;61850;54.980;73.298;2023-03-01T03:45:38;1.37;92.43
73570;SHT30;61850;54.980;73.298;2023-03-01T03:48:15;1.36;92.65
73570;SHT30;61850;54.980;73.298;2023-03-01T03:50:49;1.36;92.79
73570;SHT30;61850;54.980;73.298;2023-03-01T03:53:15;1.36;92.83
73570;SHT30;61850;54.980;73.298;2023-03-01T03:55:41;1.44;92.87
73570;SHT30;61850;54.980;73.298;2023-03-01T03:58:08;1.41;92.87
73570;SHT30;61850;54.980;73.298;2023-03-01T04:00:41;1.43;92.82
73570;SHT30;61850;54.980;73.298;2023-03-01T04:03:13;1.44;92.77
73570;SHT30;61850;54.980;73.298;2023-03-01T04:05:40;1.44;92.66
73570;SHT30;61850;54.980;73.298;2023-03-01T04:08:07;1.47;92.57
73570;SHT30;61850;54.980;73.298;2023-03-01T04:10:44;1.48;92.62
73570;SHT30;61850;54.980;73.298;2023-03-01T04:13:11;1.52;92.43
73570;SHT30;61850;54.980;73.298;2023-03-01T04:15:37;1.50;92.45
73570;SHT30;61850;54.980;73.298;2023-03-01T04:18:03;1.47;92.53
73570;SHT30;61850;54.980;73.298;2023-03-01T04:20:30;1.51;92.47
73570;SHT30;61850;54.980;73.298;2023-03-01T04:23:04;1.61;92.22
73570;SHT30;61850;54.980;73.298;2023-03-01T04:25:46;1.64;92.00
73570;SHT30;61850;54.980;73.298;2023-03-01T04:28:27;1.62;91.96
73570;SHT30;61850;54.980;73.298;2023-03-01T04:31:08;1.75;91.69
73570;SHT30;61850;54.980;73.298;2023-03-01T04:33:48;1.83;91.43
73570;SHT30;61850;54.980;73.298;2023-03-01T04:36:15;1.89;91.11
73570;SHT30;61850;54.980;73.298;2023-03-01T04:38:41;1.95;90.94
73570;SHT30;61850;54.980;73.298;2023-03-01T04:41:09;1.96;90.77
73570;SHT30;61850;54.980;73.298;2023-03-01T04:43:35;2.01;90.64
73570;SHT30;61850;54.980;73.298;2023-03-01T04:46:04;2.08;90.33
73570;SHT30;61850;54.980;73.298;2023-03-01T04:48:32;2.13;90.12
73570;SHT30;61850;54.980;73.298;2023-03-01T04:50:58;2.16;90.02
73570;SHT30;61850;54.980;73.298;2023-03-01T04:53:24;2.19;89.90
73570;SHT30;61850;54.980;73.298;2023-03-01T04:55:50;2.20;89.88
73570;SHT30;61850;54.980;73.298;2023-03-01T04:58:16;2.19;89.71
73570;SHT30;61850;54.980;73.298;2023-03-01T05:00:42;2.22;89.74
73570;SHT30;61850;54.980;73.298;2023-03-01T05:03:08;2.22;89.63
73570;SHT30;61850;54.980;73.298;2023-03-01T05:05:46;2.25;89.63
73570;SHT30;61850;54.980;73.298;2023-03-01T05:08:22;2.23;89.73
73570;SHT30;61850;54.980;73.298;2023-03-01T05:10:49;2.26;89.61
73570;SHT30;61850;54.980;73.298;2023-03-01T05:13:16;2.33;89.43
73570;SHT30;61850;54.980;73.298;2023-03-01T05:15:47;2.34;89.34
73570;SHT30;61850;54.980;73.298;2023-03-01T05:18:19;2.41;89.24
73570;SHT30;61850;54.980;73.298;2023-03-01T05:20:45;2.43;89.06
73570;SHT30;61850;54.980;73.298;2023-03-01T05:23:11;2.36;89.15
73570;SHT30;61850;54.980;73.298;2023-03-01T05:25:38;2.46;89.08
73570;SHT30;61850;54.980;73.298;2023-03-01T05:28:11;2.51;88.84
73570;SHT30;61850;54.980;73.298;2023-03-01T05:30:47;2.58;88.49
73570;SHT30;61850;54.980;73.298;2023-03-01T05:33:13;2.67;88.30
73570;SHT30;61850;54.980;73.298;2023-03-01T05:35:43;2.58;88.37
73570;SHT30;61850;54.980;73.298;2023-03-01T05:38:12;2.61;88.37
73570;SHT30;61850;54.980;73.298;2023-03-01T05:40:47;2.75;87.97
73570;SHT30;61850;54.980;73.298;2023-03-01T05:43:14;2.74;87.87
73570;SHT30;61850;54.980;73.298;2023-03-01T05:45:51;2.80;87.78
73570;SHT30;61850;54.980;73.298;2023-03-01T05:48:18;2.74;87.93
73570;SHT30;61850;54.980;73.298;2023-03-01T05:50:50;2.78;87.77
73570;SHT30;61850;54.980;73.298;2023-03-01T05:53:17;2.78;87.54
73570;SHT30;61850;54.980;73.298;2023-03-01T05:55:45;2.81;87.52
73570;SHT30;61850;54.980;73.298;2023-03-01T05:58:14;2.83;87.34
73570;SHT30;61850;54.980;73.298;2023-03-01T06:00:49;2.87;87.23
73570;SHT30;61850;54.980;73.298;2023-03-01T06:03:16;2.85;87.32
73570;SHT30;61850;54.980;73.298;2023-03-01T06:05:43;2.95;86.97
73570;SHT30;61850;54.980;73.298;2023-03-01T06:08:09;2.89;87.12
73570;SHT30;61850;54.980;73.298;2023-03-01T06:10:41;2.89;87.22
73570;SHT30;61850;54.980;73.298;2023-03-01T06:13:07;2.73;87.27
73570;SHT30;61850;54.980;73.298;2023-03-01T06:15:33;2.62;87.93
73570;SHT30;61850;54.980;73.298;2023-03-01T06:17:59;2.51;88.28
73570;SHT30;61850;54.980;73.298;2023-03-01T06:20:26;2.44;88.41
73570;SHT30;61850;54.980;73.298;2023-03-01T06:22:55;2.40;88.91
73570;SHT30;61850;54.980;73.298;2023-03-01T06:25:32;2.40;88.92
73570;SHT30;61850;54.980;73.298;2023-03-01T06:27:58;2.43;88.92
73570;SHT30;61850;54.980;73.298;2023-03-01T06:30:25;2.43;88.84
73570;SHT30;61850;54.980;73.298;2023-03-01T06:32:52;2.41;88.78
73570;SHT30;61850;54.980;73.298;2023-03-01T06:35:23;2.46;88.72
73570;SHT30;61850;54.980;73.298;2023-03-01T06:37:49;2.48;88.44
73570;SHT30;61850;54.980;73.298;2023-03-01T06:40:16;2.48;88.47
73570;SHT30;61850;54.980;73.298;2023-03-01T06:42:43;2.50;88.53
73570;SHT30;61850;54.980;73.298;2023-03-01T06:45:09;2.48;88.76
73570;SHT30;61850;54.980;73.298;2023-03-01T06:47:36;2.56;88.35
73570;SHT30;61850;54.980;73.298;2023-03-01T06:50:03;2.56;88.11
73570;SHT30;61850;54.980;73.298;2023-03-01T06:52:39;2.53;88.34
73570;SHT30;61850;54.980;73.298;2023-03-01T06:55:06;2.44;88.44
73570;SHT30;61850;54.980;73.298;2023-03-01T06:57:32;2.46;88.42
73570;SHT30;61850;54.980;73.298;2023-03-01T06:59:58;2.51;88.40
73570;SHT30;61850;54.980;73.298;2023-03-01T07:02:25;2.57;88.16
73570;SHT30;61850;54.980;73.298;2023-03-01T07:04:51;2.65;87.90
73570;SHT30;61850;54.980;73.298;2023-03-01T07:07:28;2.70;87.57
73570;SHT30;61850;54.980;73.298;2023-03-01T07:09:55;2.83;87.16
73570;SHT30;61850;54.980;73.298;2023-03-01T07:12:21;2.83;86.98
73570;SHT30;61850;54.980;73.298;2023-03-01T07:14:58;2.75;87.04
73570;SHT30;61850;54.980;73.298;2023-03-01T07:17:24;2.77;86.93
73570;SHT30;61850;54.980;73.298;2023-03-01T07:19:50;2.85;86.82
73570;SHT30;61850;54.980;73.298;2023-03-01T07:22:16;2.85;86.61
73570;SHT30;61850;54.980;73.298;2023-03-01T07:24:43;2.95;86.43
73570;SHT30;61850;54.980;73.298;2023-03-01T07:27:09;2.96;86.21
73570;SHT30;61850;54.980;73.298;2023-03-01T07:29:49;2.95;86.20
73570;SHT30;61850;54.980;73.298;2023-03-01T07:32:15;3.02;86.15
73570;SHT30;61850;54.980;73.298;2023-03-01T07:34:41;3.04;86.00
73570;SHT30;61850;54.980;73.298;2023-03-01T07:37:08;2.88;86.14
73570;SHT30;61850;54.980;73.298;2023-03-01T07:39:34;2.85;86.30
73570;SHT30;61850;54.980;73.298;2023-03-01T07:42:00;2.84;86.35
73570;SHT30;61850;54.980;73.298;2023-03-01T07:44:26;2.88;86.24
73570;SHT30;61850;54.980;73.298;2023-03-01T07:46:52;2.85;86.21
73570;SHT30;61850;54.980;73.298;2023-03-01T07:49:22;2.89;86.33
73570;SHT30;61850;54.980;73.298;2023-03-01T07:51:48;2.83;86.55
73570;SHT30;61850;54.980;73.298;2023-03-01T07:54:15;2.75;86.78
73570;SHT30;61850;54.980;73.298;2023-03-01T07:56:41;2.77;86.79
73570;SHT30;61850;54.980;73.298;2023-03-01T07:59:11;2.74;87.09
73570;SHT30;61850;54.980;73.298;2023-03-01T08:01:37;2.65;87.49
73570;SHT30;61850;54.980;73.298;2023-03-01T08:04:10;2.74;87.43
73570;SHT30;61850;54.980;73.298;2023-03-01T08:06:37;2.74;87.55
73570;SHT30;61850;54.980;73.298;2023-03-01T08:09:03;2.75;87.91
73570;SHT30;61850;54.980;73.298;2023-03-01T08:11:34;2.74;87.89
73570;SHT30;61850;54.980;73.298;2023-03-01T08:14:00;2.60;88.10
73570;SHT30;61850;54.980;73.298;2023-03-01T08:16:26;2.68;88.23
73570;SHT30;61850;54.980;73.298;2023-03-01T08:19:06;2.58;88.76
73570;SHT30;61850;54.980;73.298;2023-03-01T08:21:37;2.64;88.60
73570;SHT30;61850;54.980;73.298;2023-03-01T08:24:08;2.58;88.79
73570;SHT30;61850;54.980;73.298;2023-03-01T08:26:46;2.54;88.92
73570;SHT30;61850;54.980;73.298;2023-03-01T08:29:12;2.61;88.88
73570;SHT30;61850;54.980;73.298;2023-03-01T08:31:38;2.61;88.89
73570;SHT30;61850;54.980;73.298;2023-03-01T08:34:11;2.57;88.98
73570;SHT30;61850;54.980;73.298;2023-03-01T08:36:38;2.54;89.11
73570;SHT30;61850;54.980;73.298;2023-03-01T08:39:05;2.51;89.23
73570;SHT30;61850;54.980;73.298;2023-03-01T08:41:32;2.43;89.48
73570;SHT30;61850;54.980;73.298;2023-03-01T08:43:58;2.38;90.13
73570;SHT30;61850;54.980;73.298;2023-03-01T08:46:36;2.38;90.43
73570;SHT30;61850;54.980;73.298;2023-03-01T08:49:06;2.37;90.08
73570;SHT30;61850;54.980;73.298;2023-03-01T08:51:32;2.32;90.05
73570;SHT30;61850;54.980;73.298;2023-03-01T08:54:04;2.29;90.18
73570;SHT30;61850;54.980;73.298;2023-03-01T08:56:31;2.36;90.12
73570;SHT30;61850;54.980;73.298;2023-03-01T08:58:57;2.36;90.11
73570;SHT30;61850;54.980;73.298;2023-03-01T09:01:23;2.32;90.12
73570;SHT30;61850;54.980;73.298;2023-03-01T09:03:49;2.41;90.05
73570;SHT30;61850;54.980;73.298;2023-03-01T09:06:22;2.38;90.10
73570;SHT30;61850;54.980;73.298;2023-03-01T09:08:49;2.40;90.14
73570;SHT30;61850;54.980;73.298;2023-03-01T09:11:21;2.38;90.13
73570;SHT30;61850;54.980;73.298;2023-03-01T09:13:57;2.38;90.21
73570;SHT30;61850;54.980;73.298;2023-03-01T09:16:27;2.44;90.10
73570;SHT30;61850;54.980;73.298;2023-03-01T09:19:00;2.51;90.11
73570;SHT30;61850;54.980;73.298;2023-03-01T09:21:26;2.54;90.22
73570;SHT30;61850;54.980;73.298;2023-03-01T09:23:52;2.47;90.06
73570;SHT30;61850;54.980;73.298;2023-03-01T09:26:19;2.56;89.99
73570;SHT30;61850;54.980;73.298;2023-03-01T09:28:51;2.54;89.99
73570;SHT30;61850;54.980;73.298;2023-03-01T09:31:19;2.46;90.19
73570;SHT30;61850;54.980;73.298;2023-03-01T09:33:46;2.40;90.14
73570;SHT30;61850;54.980;73.298;2023-03-01T09:36:15;2.37;90.31
73570;SHT30;61850;54.980;73.298;2023-03-01T09:38:44;2.43;90.31
73570;SHT30;61850;54.980;73.298;2023-03-01T09:41:34;2.41;90.24
73570;SHT30;61850;54.980;73.298;2023-03-01T09:44:01;2.36;90.31
73570;SHT30;61850;54.980;73.298;2023-03-01T09:46:37;2.34;90.30
73570;SHT30;61850;54.980;73.298;2023-03-01T09:49:10;2.43;90.20
73570;SHT30;61850;54.980;73.298;2023-03-01T09:51:38;2.29;90.40
73570;SHT30;61850;54.980;73.298;2023-03-01T09:54:08;2.33;90.40
73570;SHT30;61850;54.980;73.298;2023-03-01T09:56:53;2.26;90.48
73570;SHT30;61850;54.980;73.298;2023-03-01T09:59:26;2.30;90.56
73570;SHT30;61850;54.980;73.298;2023-03-01T10:02:01;2.30;90.55
73570;SHT30;61850;54.980;73.298;2023-03-01T10:09:38;2.20;90.65
73570;SHT30;61850;54.980;73.298;2023-03-01T10:12:17;2.20;90.74
73570;SHT30;61850;54.980;73.298;2023-03-01T10:22:44;2.03;91.24
73570;SHT30;61850;54.980;73.298;2023-03-01T10:25:32;2.08;91.21
73570;SHT30;61850;54.980;73.298;2023-03-01T10:28:17;2.06;91.18
73570;SHT30;61850;54.980;73.298;2023-03-01T10:30:52;1.98;91.36
73570;SHT30;61850;54.980;73.298;2023-03-01T10:33:23;1.92;91.51
73570;SHT30;61850;54.980;73.298;2023-03-01T10:35:55;1.94;91.78
73570;SHT30;61850;54.980;73.298;2023-03-01T10:38:46;1.96;91.53
73570;SHT30;61850;54.980;73.298;2023-03-01T10:41:18;1.91;91.78
73570;SHT30;61850;54.980;73.298;2023-03-01T10:43:48;1.89;91.80
73570;SHT30;61850;54.980;73.298;2023-03-01T10:49:05;2.02;91.52
73570;SHT30;61850;54.980;73.298;2023-03-01T10:51:41;2.08;91.26
73570;SHT30;61850;54.980;73.298;2023-03-01T10:54:25;1.98;91.45
73570;SHT30;61850;54.980;73.298;2023-03-01T10:56:55;1.99;91.50
73570;SHT30;61850;54.980;73.298;2023-03-01T11:07:46;1.81;92.24
73570;SHT30;61850;54.980;73.298;2023-03-01T11:10:27;1.78;92.43
73570;SHT30;61850;54.980;73.298;2023-03-01T11:13:06;1.74;92.65
73570;SHT30;61850;54.980;73.298;2023-03-01T11:15:33;1.67;92.78
73570;SHT30;61850;54.980;73.298;2023-03-01T11:18:00;1.64;92.82
73570;SHT30;61850;54.980;73.298;2023-03-01T11:20:36;1.62;92.95
73570;SHT30;61850;54.980;73.298;2023-03-01T11:23:18;1.61;93.06
73570;SHT30;61850;54.980;73.298;2023-03-01T11:25:58;1.61;93.18
73570;SHT30;61850;54.980;73.298;2023-03-01T11:28:27;1.59;93.20
73570;SHT30;61850;54.980;73.298;2023-03-01T11:31:08;1.58;93.17
73570;SHT30;61850;54.980;73.298;2023-03-01T11:33:41;1.57;93.22
73570;SHT30;61850;54.980;73.298;2023-03-01T11:36:18;1.57;93.34
73570;SHT30;61850;54.980;73.298;2023-03-01T11:38:53;1.55;93.38
73570;SHT30;61850;54.980;73.298;2023-03-01T11:41:20;1.57;93.43
73570;SHT30;61850;54.980;73.298;2023-03-01T11:46:33;1.50;93.60
73570;SHT30;61850;54.980;73.298;2023-03-01T12:02:42;1.50;93.83
73570;SHT30;61850;54.980;73.298;2023-03-01T12:10:47;1.48;93.98
73570;SHT30;61850;54.980;73.298;2023-03-01T12:16:09;1.51;93.93
73570;SHT30;61850;54.980;73.298;2023-03-01T12:19:00;1.54;94.01
73570;SHT30;61850;54.980;73.298;2023-03-01T12:24:47;1.58;93.92
73570;SHT30;61850;54.980;73.298;2023-03-01T12:27:17;1.58;93.74
73570;SHT30;61850;54.980;73.298;2023-03-01T12:29:54;1.61;93.83
73570;SHT30;61850;54.980;73.298;2023-03-01T12:50:53;1.65;93.67
73570;SHT30;61850;54.980;73.298;2023-03-01T12:53:22;1.62;93.70
73570;SHT30;61850;54.980;73.298;2023-03-01T12:55:51;1.59;93.71
73570;SHT30;61850;54.980;73.298;2023-03-01T13:01:35;1.57;93.78
73570;SHT30;61850;54.980;73.298;2023-03-01T13:11:48;1.58;93.68
73570;SHT30;61850;54.980;73.298;2023-03-01T13:16:49;1.57;93.52
73570;SHT30;61850;54.980;73.298;2023-03-01T13:19:17;1.58;93.45
73570;SHT30;61850;54.980;73.298;2023-03-01T13:21:45;1.57;93.47
73570;SHT30;61850;54.980;73.298;2023-03-01T13:29:57;1.55;93.47
73570;SHT30;61850;54.980;73.298;2023-03-01T13:32:37;1.51;93.56
73570;SHT30;61850;54.980;73.298;2023-03-01T13:37:50;1.59;93.51
73570;SHT30;61850;54.980;73.298;2023-03-01T13:42:53;1.62;93.41
73570;SHT30;61850;54.980;73.298;2023-03-01T13:45:21;1.61;93.37
73570;SHT30;61850;54.980;73.298;2023-03-01T13:47:50;1.65;93.43
73570;SHT30;61850;54.980;73.298;2023-03-01T13:50:54;1.65;93.37
73570;SHT30;61850;54.980;73.298;2023-03-01T13:53:21;1.67;93.26
73570;SHT30;61850;54.980;73.298;2023-03-01T13:56:00;1.69;93.23
73570;SHT30;61850;54.980;73.298;2023-03-01T13:58:31;1.67;93.16
73570;SHT30;61850;54.980;73.298;2023-03-01T14:01:03;1.67;93.14
73570;SHT30;61850;54.980;73.298;2023-03-01T14:03:40;1.67;93.13
73570;SHT30;61850;54.980;73.298;2023-03-01T14:06:09;1.75;93.06
73570;SHT30;61850;54.980;73.298;2023-03-01T14:08:37;1.74;92.94
73570;SHT30;61850;54.980;73.298;2023-03-01T14:21:35;1.81;92.29
73570;SHT30;61850;54.980;73.298;2023-03-01T14:24:02;1.83;92.22
73570;SHT30;61850;54.980;73.298;2023-03-01T14:26:39;1.82;92.05
73570;SHT30;61850;54.980;73.298;2023-03-01T14:29:13;1.85;91.97
73570;SHT30;61850;54.980;73.298;2023-03-01T14:31:50;1.86;91.85
73570;SHT30;61850;54.980;73.298;2023-03-01T14:34:23;1.86;91.75
73570;SHT30;61850;54.980;73.298;2023-03-01T14:36:50;1.86;91.61
73570;SHT30;61850;54.980;73.298;2023-03-01T14:39:27;1.86;91.46
73570;SHT30;61850;54.980;73.298;2023-03-01T14:41:55;1.89;91.36
73570;SHT30;61850;54.980;73.298;2023-03-01T14:44:22;1.91;91.26
73570;SHT30;61850;54.980;73.298;2023-03-01T14:46:54;1.96;91.06
73570;SHT30;61850;54.980;73.298;2023-03-01T14:49:23;2.01;90.91
73570;SHT30;61850;54.980;73.298;2023-03-01T14:52:03;2.05;90.79
73570;SHT30;61850;54.980;73.298;2023-03-01T14:54:39;2.05;90.57
73570;SHT30;61850;54.980;73.298;2023-03-01T14:57:28;2.09;90.49
73570;SHT30;61850;54.980;73.298;2023-03-01T14:59:55;2.10;90.52
73570;SHT30;61850;54.980;73.298;2023-03-01T15:02:27;2.12;90.42
73570;SHT30;61850;54.980;73.298;2023-03-01T15:05:00;2.16;90.28
73570;SHT30;61850;54.980;73.298;2023-03-01T15:07:29;2.17;90.12
73570;SHT30;61850;54.980;73.298;2023-03-01T15:10:07;2.15;90.03
73570;SHT30;61850;54.980;73.298;2023-03-01T15:12:42;2.17;89.84
73570;SHT30;61850;54.980;73.298;2023-03-01T15:15:30;2.20;89.75
73570;SHT30;61850;54.980;73.298;2023-03-01T15:18:00;2.20;89.72
73570;SHT30;61850;54.980;73.298;2023-03-01T15:20:28;2.22;89.59
73570;SHT30;61850;54.980;73.298;2023-03-01T15:23:00;2.23;89.58
73570;SHT30;61850;54.980;73.298;2023-03-01T15:25:28;2.26;89.48
73570;SHT30;61850;54.980;73.298;2023-03-01T15:28:05;2.22;89.34
73570;SHT30;61850;54.980;73.298;2023-03-01T15:30:39;2.29;89.27
73570;SHT30;61850;54.980;73.298;2023-03-01T15:35:56;2.30;89.00
73570;SHT30;61850;54.980;73.298;2023-03-01T15:38:27;2.34;88.83
73570;SHT30;61850;54.980;73.298;2023-03-01T15:41:01;2.38;88.71
73570;SHT30;61850;54.980;73.298;2023-03-01T15:43:42;2.38;88.74
73570;SHT30;61850;54.980;73.298;2023-03-01T15:46:22;2.40;88.71
73570;SHT30;61850;54.980;73.298;2023-03-01T15:48:53;2.37;88.62
73570;SHT30;61850;54.980;73.298;2023-03-01T15:51:28;2.40;88.57
73570;SHT30;61850;54.980;73.298;2023-03-01T15:54:02;2.43;88.48
73570;SHT30;61850;54.980;73.298;2023-03-01T15:56:31;2.46;88.48
73570;SHT30;61850;54.980;73.298;2023-03-01T15:59:01;2.46;88.57
73570;SHT30;61850;54.980;73.298;2023-03-01T16:01:29;2.47;88.47
73570;SHT30;61850;54.980;73.298;2023-03-01T16:03:55;2.44;88.63
73570;SHT30;61850;54.980;73.298;2023-03-01T16:06:34;2.48;88.50
73570;SHT30;61850;54.980;73.298;2023-03-01T16:09:01;2.51;88.32
73570;SHT30;61850;54.980;73.298;2023-03-01T16:11:34;2.47;88.41
73570;SHT30;61850;54.980;73.298;2023-03-01T16:14:08;2.51;88.33
73570;SHT30;61850;54.980;73.298;2023-03-01T16:16:35;2.51;88.26
73570;SHT30;61850;54.980;73.298;2023-03-01T16:19:08;2.50;88.31
73570;SHT30;61850;54.980;73.298;2023-03-01T16:21:35;2.53;88.23
73570;SHT30;61850;54.980;73.298;2023-03-01T16:24:12;2.50;88.25
73570;SHT30;61850;54.980;73.298;2023-03-01T16:26:39;2.53;88.29
73570;SHT30;61850;54.980;73.298;2023-03-01T16:29:05;2.50;88.23
73570;SHT30;61850;54.980;73.298;2023-03-01T16:31:33;2.56;88.14
73570;SHT30;61850;54.980;73.298;2023-03-01T16:34:00;2.50;88.28
73570;SHT30;61850;54.980;73.298;2023-03-01T16:36:29;2.51;88.25
73570;SHT30;61850;54.980;73.298;2023-03-01T16:38:57;2.57;88.27
73570;SHT30;61850;54.980;73.298;2023-03-01T16:41:25;2.57;88.27
73570;SHT30;61850;54.980;73.298;2023-03-01T16:43:52;2.51;88.33
73570;SHT30;61850;54.980;73.298;2023-03-01T16:46:28;2.53;88.41
73570;SHT30;61850;54.980;73.298;2023-03-01T16:48:55;2.50;88.46
73570;SHT30;61850;54.980;73.298;2023-03-01T16:51:22;2.46;88.61
73570;SHT30;61850;54.980;73.298;2023-03-01T16:54:00;2.50;88.52
73570;SHT30;61850;54.980;73.298;2023-03-01T16:56:27;2.51;88.47
73570;SHT30;61850;54.980;73.298;2023-03-01T16:58:56;2.53;88.43
73570;SHT30;61850;54.980;73.298;2023-03-01T17:01:27;2.50;88.54
73570;SHT30;61850;54.980;73.298;2023-03-01T17:04:03;2.50;88.54
73570;SHT30;61850;54.980;73.298;2023-03-01T17:06:39;2.46;88.71
73570;SHT30;61850;54.980;73.298;2023-03-01T17:09:11;2.44;88.70
73570;SHT30;61850;54.980;73.298;2023-03-01T17:11:38;2.46;88.61
73570;SHT30;61850;54.980;73.298;2023-03-01T17:14:05;2.46;88.62
73570;SHT30;61850;54.980;73.298;2023-03-01T17:16:33;2.41;88.73
73570;SHT30;61850;54.980;73.298;2023-03-01T17:19:02;2.38;88.81
73570;SHT30;61850;54.980;73.298;2023-03-01T17:21:29;2.44;88.71
73570;SHT30;61850;54.980;73.298;2023-03-01T17:23:56;2.40;88.66
73570;SHT30;61850;54.980;73.298;2023-03-01T17:26:29;2.40;88.76
73570;SHT30;61850;54.980;73.298;2023-03-01T17:28:56;2.37;88.71
73570;SHT30;61850;54.980;73.298;2023-03-01T17:31:24;2.41;88.55
73570;SHT30;61850;54.980;73.298;2023-03-01T17:34:01;2.43;88.52
73570;SHT30;61850;54.980;73.298;2023-03-01T17:36:27;2.43;88.60
73570;SHT30;61850;54.980;73.298;2023-03-01T17:38:57;2.41;88.61
73570;SHT30;61850;54.980;73.298;2023-03-01T17:41:31;2.40;88.57
73570;SHT30;61850;54.980;73.298;2023-03-01T17:43:58;2.38;88.63
73570;SHT30;61850;54.980;73.298;2023-03-01T17:46:25;2.38;88.63
73570;SHT30;61850;54.980;73.298;2023-03-01T17:48:52;2.36;88.58
73570;SHT30;61850;54.980;73.298;2023-03-01T17:51:18;2.38;88.52